createdAt,value
2019-05-20T00:01:18.308Z,94034.66
2019-05-20T00:03:46.977Z,94037.55
2019-05-20T00:06:15.556Z,94049.23
2019-05-20T00:08:44.160Z,94035.77
2019-05-20T00:11:12.833Z,94047.13
2019-05-20T00:13:41.329Z,94058.36
2019-05-20T00:16:09.955Z,94044.48
2019-05-20T00:18:38.623Z,94050.80
2019-05-20T00:21:07.126Z,94057.78
2019-05-20T00:23:35.744Z,94041.91
2019-05-20T00:26:04.429Z,94044.62
2019-05-20T00:28:33.460Z,94070.69
2019-05-20T00:31:02.113Z,94057.89
2019-05-20T00:33:30.640Z,94064.18
2019-05-20T00:35:59.199Z,94062.35
2019-05-20T00:38:27.762Z,94065.42
2019-05-20T00:40:56.293Z,94067.97
2019-05-20T00:43:24.875Z,94065.30
2019-05-20T00:45:53.491Z,94059.16
2019-05-20T00:48:22.021Z,94069.57
2019-05-20T00:50:50.654Z,94059.67
2019-05-20T00:53:19.287Z,94078.16
2019-05-20T00:55:47.964Z,94067.44
2019-05-20T00:58:16.528Z,94074.47
2019-05-20T01:00:45.231Z,94076.48
2019-05-20T01:03:13.942Z,94082.84
2019-05-20T01:05:42.503Z,94090.50
2019-05-20T01:08:11.000Z,94087.14
2019-05-20T01:10:39.640Z,94088.09
2019-05-20T01:13:08.338Z,94093.55
2019-05-20T01:15:36.932Z,94090.20
2019-05-20T01:18:05.504Z,94089.58
2019-05-20T01:20:34.137Z,94095.01
2019-05-20T01:23:02.798Z,94095.01
2019-05-20T01:25:31.357Z,94095.69
2019-05-20T01:27:59.924Z,94091.37
2019-05-20T01:30:28.589Z,94104.50
2019-05-20T01:33:12.449Z,94100.64
2019-05-20T01:35:27.360Z,94099.28
2019-05-20T01:37:55.875Z,94096.52
2019-05-20T01:40:24.604Z,94091.02
2019-05-20T01:42:53.240Z,94096.33
2019-05-20T01:45:21.839Z,94093.41
2019-05-20T01:47:50.332Z,94088.26
2019-05-20T01:50:19.018Z,94086.34
2019-05-20T01:52:47.694Z,94094.54
2019-05-20T01:55:16.746Z,94106.39
2019-05-20T01:57:45.308Z,94097.78
2019-05-20T02:00:14.175Z,94093.41
2019-05-20T02:02:42.845Z,94098.75
2019-05-20T02:05:11.631Z,94093.70
2019-05-20T02:07:40.292Z,94095.36
2019-05-20T02:10:09.216Z,94092.53
2019-05-20T02:12:37.771Z,94090.17
2019-05-20T02:15:15.612Z,94085.15
2019-05-20T02:17:44.247Z,94085.97
2019-05-20T02:20:12.974Z,94085.53
2019-05-20T02:22:41.566Z,94085.30
2019-05-20T02:25:10.394Z,94084.59
2019-05-20T02:27:39.015Z,94091.77
2019-05-20T02:30:09.386Z,94080.25
2019-05-20T02:32:37.863Z,94083.27
2019-05-20T02:35:07.271Z,94089.42
2019-05-20T02:37:35.929Z,94082.47
2019-05-20T02:40:06.362Z,94089.79
2019-05-20T02:42:34.987Z,94087.88
2019-05-20T02:45:05.461Z,94090.55
2019-05-20T02:47:33.944Z,94087.94
2019-05-20T02:50:02.659Z,94080.08
2019-05-20T02:52:31.344Z,94084.70
2019-05-20T02:55:00.005Z,94090.02
2019-05-20T02:57:28.561Z,94096.73
2019-05-20T02:59:57.226Z,94097.05
2019-05-20T03:02:25.849Z,94097.96
2019-05-20T03:04:54.477Z,94096.05
2019-05-20T03:07:23.000Z,94098.09
2019-05-20T03:09:51.565Z,94108.89
2019-05-20T03:12:20.188Z,94111.05
2019-05-20T03:14:48.859Z,94111.47
2019-05-20T03:17:17.416Z,94110.34
2019-05-20T03:19:45.970Z,94109.86
2019-05-20T03:22:14.501Z,94105.22
2019-05-20T03:24:43.057Z,94109.73
2019-05-20T03:27:11.687Z,94104.73
2019-05-20T03:29:40.211Z,94093.27
2019-05-20T03:32:08.794Z,94101.10
2019-05-20T03:34:47.606Z,94099.02
2019-05-20T03:37:07.703Z,94101.91
2019-05-20T03:39:36.194Z,94105.42
2019-05-20T03:42:04.831Z,94120.23
2019-05-20T03:44:33.499Z,94118.08
2019-05-20T03:47:02.127Z,94125.87
2019-05-20T03:49:30.683Z,94128.86
2019-05-20T03:51:59.284Z,94125.17
2019-05-20T03:54:27.872Z,94139.56
2019-05-20T03:56:56.473Z,94143.53
2019-05-20T03:59:25.163Z,94141.80
2019-05-20T04:01:53.648Z,94151.03
2019-05-20T04:04:25.057Z,94157.33
2019-05-20T04:06:52.541Z,94151.20
2019-05-20T04:09:21.251Z,94155.89
2019-05-20T04:11:49.882Z,94152.20
2019-05-20T04:14:18.484Z,94158.61
2019-05-20T04:16:48.780Z,94150.67
2019-05-20T04:19:17.362Z,94154.80
2019-05-20T04:21:46.006Z,94156.09
2019-05-20T04:24:14.763Z,94151.05
2019-05-20T04:26:43.409Z,94151.73
2019-05-20T04:29:12.081Z,94154.11
2019-05-20T04:31:40.643Z,94157.84
2019-05-20T04:34:09.130Z,94153.38
2019-05-20T04:36:37.724Z,94160.21
2019-05-20T04:39:07.065Z,94160.22
2019-05-20T04:41:36.020Z,94158.61
2019-05-20T04:44:04.747Z,94156.32
2019-05-20T04:46:33.377Z,94159.62
2019-05-20T04:49:02.015Z,94159.88
2019-05-20T04:51:30.603Z,94169.58
2019-05-20T04:53:59.241Z,94158.57
2019-05-20T04:56:29.411Z,94161.55
2019-05-20T04:58:58.061Z,94150.77
2019-05-20T05:01:26.564Z,94151.22
2019-05-20T05:03:55.255Z,94148.86
2019-05-20T05:06:23.868Z,94153.39
2019-05-20T05:08:52.434Z,94155.31
2019-05-20T05:11:20.976Z,94160.16
2019-05-20T05:13:49.653Z,94159.84
2019-05-20T05:16:18.294Z,94160.00
2019-05-20T05:18:46.962Z,94156.98
2019-05-20T05:21:15.601Z,94158.33
2019-05-20T05:23:58.290Z,94158.86
2019-05-20T05:26:14.781Z,94149.56
2019-05-20T05:28:43.419Z,94152.00
2019-05-20T05:31:12.111Z,94155.61
2019-05-20T05:33:40.737Z,94152.52
2019-05-20T05:36:09.247Z,94147.56
2019-05-20T05:38:37.921Z,94157.17
2019-05-20T05:41:06.591Z,94159.08
2019-05-20T05:43:35.074Z,94165.86
2019-05-20T05:46:03.689Z,94159.48
2019-05-20T05:48:32.317Z,94166.27
2019-05-20T05:51:01.020Z,94166.27
2019-05-20T05:53:29.556Z,94161.78
2019-05-20T05:55:58.051Z,94164.56
2019-05-20T05:58:26.693Z,94152.05
2019-05-20T06:00:55.356Z,94151.58
2019-05-20T06:03:24.000Z,94168.69
2019-05-20T06:06:10.294Z,94177.89
2019-05-20T06:08:22.941Z,94180.89
2019-05-20T06:10:51.533Z,94183.39
2019-05-20T06:13:20.167Z,94178.39
2019-05-20T06:15:49.180Z,94174.95
2019-05-20T06:18:17.957Z,94174.58
2019-05-20T06:20:46.547Z,94182.09
2019-05-20T06:23:15.338Z,94178.59
2019-05-20T06:25:43.971Z,94180.35
2019-05-20T06:28:12.602Z,94174.91
2019-05-20T06:30:43.072Z,94172.52
2019-05-20T06:33:11.704Z,94172.96
2019-05-20T06:35:40.744Z,94164.20
2019-05-20T06:38:13.700Z,94169.70
2019-05-20T06:40:42.278Z,94171.76
2019-05-20T06:43:11.001Z,94172.00
2019-05-20T06:45:39.670Z,94170.96
2019-05-20T06:48:08.229Z,94176.17
2019-05-20T06:50:36.721Z,94164.36
2019-05-20T06:53:05.384Z,94166.97
2019-05-20T06:55:34.015Z,94171.99
2019-05-20T06:58:02.571Z,94174.64
2019-05-20T07:00:38.915Z,94174.17
2019-05-20T07:03:07.536Z,94173.72
2019-05-20T07:05:36.176Z,94175.15
2019-05-20T07:08:04.936Z,94186.81
2019-05-20T07:10:33.601Z,94190.52
2019-05-20T07:13:02.223Z,94177.59
2019-05-20T07:15:30.906Z,94186.34
2019-05-20T07:17:59.541Z,94179.87
2019-05-20T07:20:28.097Z,94177.87
2019-05-20T07:22:57.268Z,94160.91
2019-05-20T07:25:26.178Z,94170.28
2019-05-20T07:27:54.870Z,94166.62
2019-05-20T07:30:23.594Z,94169.06
2019-05-20T07:32:52.343Z,94176.53
2019-05-20T07:35:30.251Z,94178.84
2019-05-20T07:37:51.363Z,94178.30
2019-05-20T07:40:30.954Z,94164.02
2019-05-20T07:42:59.514Z,94171.21
2019-05-20T07:45:29.917Z,94168.25
2019-05-20T07:47:58.800Z,94176.11
2019-05-20T07:50:28.356Z,94177.81
2019-05-20T07:53:00.332Z,94178.00
2019-05-20T07:55:30.277Z,94182.16
2019-05-20T07:58:01.813Z,94175.56
2019-05-20T08:00:30.642Z,94177.09
2019-05-20T08:02:59.388Z,94173.30
2019-05-20T08:05:28.158Z,94183.66
2019-05-20T08:07:56.804Z,94182.12
2019-05-20T08:10:25.438Z,94181.48
2019-05-20T08:12:54.215Z,94183.26
2019-05-20T08:15:23.201Z,94178.98
2019-05-20T08:17:51.806Z,94173.01
2019-05-20T08:20:20.445Z,94166.20
2019-05-20T08:22:49.079Z,94172.55
2019-05-20T08:25:18.120Z,94168.85
2019-05-20T08:27:47.104Z,94174.12
2019-05-20T08:30:18.331Z,94172.79
2019-05-20T08:32:47.151Z,94187.83
2019-05-20T08:35:16.812Z,94187.23
2019-05-20T08:37:46.247Z,94189.01
2019-05-20T08:40:15.119Z,94193.37
2019-05-20T08:42:43.817Z,94194.20
2019-05-20T08:45:12.990Z,94185.52
2019-05-20T08:47:41.735Z,94177.61
2019-05-20T08:50:15.987Z,94179.99
2019-05-20T08:52:41.626Z,94178.22
2019-05-20T08:55:10.409Z,94179.86
2019-05-20T08:57:39.166Z,94179.59
2019-05-20T09:00:10.031Z,94170.69
2019-05-20T09:02:38.625Z,94170.67
2019-05-20T09:05:07.474Z,94173.42
2019-05-20T09:07:36.183Z,94168.90
2019-05-20T09:10:05.709Z,94172.41
2019-05-20T09:12:34.381Z,94168.41
2019-05-20T09:15:03.197Z,94169.44
2019-05-20T09:17:31.830Z,94168.92
2019-05-20T09:20:00.501Z,94177.94
2019-05-20T09:22:29.056Z,94176.77
2019-05-20T09:24:57.816Z,94170.87
2019-05-20T09:27:26.467Z,94170.23
2019-05-20T09:29:55.232Z,94168.90
2019-05-20T09:32:24.050Z,94172.62
2019-05-20T09:34:52.678Z,94159.95
2019-05-20T09:37:21.318Z,94159.62
2019-05-20T09:39:49.952Z,94160.40
2019-05-20T09:42:18.642Z,94156.42
2019-05-20T09:44:47.300Z,94153.63
2019-05-20T09:47:15.863Z,94149.86
2019-05-20T09:49:44.414Z,94152.38
2019-05-20T09:52:13.052Z,94152.30
2019-05-20T09:54:45.437Z,94146.61
2019-05-20T09:57:12.100Z,94145.84
2019-05-20T09:59:43.655Z,94144.03
2019-05-20T10:02:10.956Z,94144.88
2019-05-20T10:07:37.499Z,94143.75
2019-05-20T10:10:08.016Z,94141.08
2019-05-20T10:12:46.012Z,94136.52
2019-05-20T10:15:07.860Z,94139.20
2019-05-20T10:17:36.499Z,94135.62
2019-05-20T10:20:08.231Z,94129.38
2019-05-20T10:22:36.978Z,94129.38
2019-05-20T10:25:06.815Z,94129.03
2019-05-20T10:27:35.404Z,94128.45
2019-05-20T10:30:05.925Z,94134.80
2019-05-20T10:32:34.561Z,94129.87
2019-05-20T10:35:03.697Z,94129.98
2019-05-20T10:37:32.379Z,94141.77
2019-05-20T10:40:01.199Z,94152.42
2019-05-20T10:42:29.757Z,94169.18
2019-05-20T10:44:58.374Z,94182.26
2019-05-20T10:47:26.871Z,94179.52
2019-05-20T10:49:55.520Z,94201.20
2019-05-20T10:52:24.200Z,94194.38
2019-05-20T10:54:52.768Z,94185.19
2019-05-20T10:57:21.404Z,94186.48
2019-05-20T10:59:50.069Z,94179.11
2019-05-20T11:02:18.709Z,94176.85
2019-05-20T11:04:47.335Z,94181.24
2019-05-20T11:07:15.959Z,94180.11
2019-05-20T11:09:44.665Z,94184.03
2019-05-20T11:12:13.317Z,94185.78
2019-05-20T11:14:41.990Z,94194.03
2019-05-20T11:17:14.744Z,94193.87
2019-05-20T11:19:40.976Z,94192.94
2019-05-20T11:22:09.586Z,94177.81
2019-05-20T11:24:38.087Z,94175.67
2019-05-20T11:27:06.722Z,94177.13
2019-05-20T11:29:35.394Z,94179.45
2019-05-20T11:32:04.019Z,94172.95
2019-05-20T11:34:32.556Z,94171.38
2019-05-20T11:37:01.447Z,94166.50
2019-05-20T11:39:33.847Z,94173.94
2019-05-20T11:42:00.515Z,94176.52
2019-05-20T11:44:29.131Z,94178.78
2019-05-20T11:46:57.764Z,94166.77
2019-05-20T11:49:29.064Z,94164.76
2019-05-20T11:51:56.749Z,94160.06
2019-05-20T11:54:25.328Z,94143.06
2019-05-20T11:56:53.962Z,94139.88
2019-05-20T11:59:22.629Z,94136.86
2019-05-20T12:01:51.184Z,94146.22
2019-05-20T12:04:19.686Z,94153.73
2019-05-20T12:06:48.352Z,94155.55
2019-05-20T12:09:16.991Z,94156.84
2019-05-20T12:11:45.555Z,94164.09
2019-05-20T12:14:14.094Z,94168.27
2019-05-20T12:16:42.585Z,94173.58
2019-05-20T12:19:11.233Z,94170.95
2019-05-20T12:21:39.915Z,94182.39
2019-05-20T12:24:08.479Z,94185.19
2019-05-20T12:26:37.106Z,94198.56
2019-05-20T12:29:05.772Z,94206.00
2019-05-20T12:31:34.347Z,94217.05
2019-05-20T12:34:02.940Z,94218.23
2019-05-20T12:36:31.620Z,94247.48
2019-05-20T12:39:00.259Z,94260.75
2019-05-20T12:41:28.908Z,94258.77
2019-05-20T12:44:10.758Z,94259.41
2019-05-20T12:46:27.856Z,94255.30
2019-05-20T12:48:56.450Z,94254.56
2019-05-20T12:51:25.124Z,94243.23
2019-05-20T12:53:53.756Z,94237.58
2019-05-20T12:56:22.395Z,94245.55
2019-05-20T12:58:51.006Z,94244.43
2019-05-20T13:01:19.636Z,94246.37
2019-05-20T13:03:48.295Z,94258.18
2019-05-20T13:06:16.832Z,94261.69
2019-05-20T13:08:45.465Z,94251.16
2019-05-20T13:11:14.101Z,94253.63
2019-05-20T13:13:42.779Z,94253.09
2019-05-20T13:16:11.629Z,94251.50
2019-05-20T13:18:54.952Z,94246.69
2019-05-20T13:21:10.611Z,94245.84
2019-05-20T13:23:39.197Z,94271.19
2019-05-20T13:26:07.904Z,94289.17
2019-05-20T13:28:36.605Z,94298.66
2019-05-20T13:31:05.183Z,94291.05
2019-05-20T13:33:33.669Z,94299.00
2019-05-20T13:36:02.445Z,94297.16
2019-05-20T13:38:31.002Z,94291.63
2019-05-20T13:40:59.576Z,94284.31
2019-05-20T13:43:28.550Z,94291.91
2019-05-20T13:45:57.197Z,94290.64
2019-05-20T13:48:25.845Z,94285.48
2019-05-20T13:50:54.500Z,94283.44
2019-05-20T13:53:23.119Z,94274.52
2019-05-20T13:55:51.728Z,94282.55
2019-05-20T13:58:20.399Z,94281.59
2019-05-20T14:00:49.043Z,94278.61
2019-05-20T14:03:17.704Z,94266.87
2019-05-20T14:05:46.314Z,94271.45
2019-05-20T14:08:15.098Z,94264.41
2019-05-20T14:10:43.814Z,94269.01
2019-05-20T14:13:12.514Z,94268.58
2019-05-20T14:15:41.163Z,94266.63
2019-05-20T14:18:09.732Z,94265.03
2019-05-20T14:20:38.345Z,94272.81
2019-05-20T14:23:06.982Z,94273.25
2019-05-20T14:25:35.665Z,94269.94
2019-05-20T14:28:04.303Z,94279.68
2019-05-20T14:30:32.953Z,94283.23
2019-05-20T14:33:01.765Z,94286.45
2019-05-20T14:35:30.515Z,94289.47
2019-05-20T14:37:59.156Z,94287.84
2019-05-20T14:40:27.803Z,94287.84
2019-05-20T14:42:56.471Z,94290.14
2019-05-20T14:45:25.092Z,94300.93
2019-05-20T14:47:53.641Z,94311.19
2019-05-20T14:50:22.405Z,94324.55
2019-05-20T14:52:51.676Z,94328.61
2019-05-20T14:55:20.283Z,94328.95
2019-05-20T14:57:48.889Z,94329.38
2019-05-20T15:00:17.625Z,94331.20
2019-05-20T15:02:46.194Z,94329.78
2019-05-20T15:05:14.932Z,94325.16
2019-05-20T15:07:43.606Z,94323.70
2019-05-20T15:10:12.402Z,94309.69
2019-05-20T15:12:41.190Z,94302.20
2019-05-20T15:15:10.520Z,94304.34
2019-05-20T15:17:39.102Z,94302.44
2019-05-20T15:20:08.077Z,94300.45
2019-05-20T15:22:36.708Z,94296.08
2019-05-20T15:25:06.056Z,94302.02
2019-05-20T15:27:34.744Z,94303.48
2019-05-20T15:30:03.320Z,94308.75
2019-05-20T15:32:31.887Z,94305.79
2019-05-20T15:35:00.568Z,94312.59
2019-05-20T15:37:29.271Z,94311.20
2019-05-20T15:39:57.885Z,94319.58
2019-05-20T15:42:26.404Z,94312.77
2019-05-20T15:44:55.031Z,94317.39
2019-05-20T15:47:23.783Z,94315.28
2019-05-20T15:49:52.448Z,94313.95
2019-05-20T15:52:20.948Z,94310.77
2019-05-20T15:54:49.687Z,94311.88
2019-05-20T15:57:18.512Z,94312.15
2019-05-20T15:59:47.014Z,94315.23
2019-05-20T16:02:15.588Z,94307.03
2019-05-20T16:04:44.126Z,94303.38
2019-05-20T16:07:12.765Z,94300.91
2019-05-20T16:09:41.413Z,94294.63
2019-05-20T16:12:10.086Z,94293.89
2019-05-20T16:14:38.645Z,94291.13
2019-05-20T16:17:07.301Z,94285.34
2019-05-20T16:19:35.965Z,94289.88
2019-05-20T16:22:04.702Z,94282.67
2019-05-20T16:24:33.202Z,94287.67
2019-05-20T16:27:01.737Z,94286.79
2019-05-20T16:29:30.367Z,94290.95
2019-05-20T16:31:59.007Z,94294.84
2019-05-20T16:34:27.689Z,94292.41
2019-05-20T16:36:56.177Z,94295.05
2019-05-20T16:39:24.809Z,94295.13
2019-05-20T16:41:53.425Z,94294.27
2019-05-20T16:44:22.042Z,94290.16
2019-05-20T16:46:50.687Z,94287.84
2019-05-20T16:49:19.293Z,94285.36
2019-05-20T16:51:47.857Z,94293.02
2019-05-20T16:54:16.556Z,94295.70
2019-05-20T16:56:45.245Z,94306.16
2019-05-20T16:59:13.859Z,94304.88
2019-05-20T17:01:46.195Z,94299.09
2019-05-20T17:04:12.861Z,94307.64
2019-05-20T17:06:41.482Z,94302.30
2019-05-20T17:09:10.210Z,94300.16
2019-05-20T17:11:38.871Z,94291.32
2019-05-20T17:14:10.571Z,94297.80
2019-05-20T17:16:38.084Z,94300.66
2019-05-20T17:19:06.990Z,94305.52
2019-05-20T17:21:35.445Z,94311.50
2019-05-20T17:24:04.088Z,94312.93
2019-05-20T17:26:32.725Z,94312.93
2019-05-20T17:29:01.399Z,94321.23
2019-05-20T17:31:30.936Z,94326.39
2019-05-20T17:34:00.933Z,94331.45
2019-05-20T17:36:29.588Z,94329.79
2019-05-20T17:38:58.148Z,94333.22
2019-05-20T17:41:27.086Z,94324.38
2019-05-20T17:43:55.892Z,94325.13
2019-05-20T17:46:24.653Z,94333.11
2019-05-20T17:48:53.231Z,94332.41
2019-05-20T17:51:21.832Z,94323.27
2019-05-20T17:53:50.467Z,94322.19
2019-05-20T17:56:19.107Z,94320.05
2019-05-20T17:58:47.706Z,94315.55
2019-05-20T18:01:16.440Z,94322.91
2019-05-20T18:03:44.940Z,94320.48
2019-05-20T18:06:13.519Z,94333.62
2019-05-20T18:08:43.817Z,94333.87
2019-05-20T18:11:12.468Z,94333.87
2019-05-20T18:13:41.220Z,94337.91
2019-05-20T18:16:09.717Z,94329.03
2019-05-20T18:18:38.354Z,94337.46
2019-05-20T18:21:07.029Z,94334.75
2019-05-20T18:23:35.680Z,94326.33
2019-05-20T18:26:04.260Z,94335.41
2019-05-20T18:28:32.856Z,94344.23
2019-05-20T18:31:01.493Z,94334.88
2019-05-20T18:33:30.129Z,94358.09
2019-05-20T18:35:58.670Z,94351.20
2019-05-20T18:38:27.303Z,94346.80
2019-05-20T18:40:55.859Z,94354.33
2019-05-20T18:43:24.547Z,94364.23
2019-05-20T18:45:53.198Z,94360.87
2019-05-20T18:48:21.832Z,94359.56
2019-05-20T18:50:50.561Z,94366.86
2019-05-20T18:53:19.187Z,94373.53
2019-05-20T18:55:47.752Z,94361.86
2019-05-20T18:58:16.412Z,94371.78
2019-05-20T19:00:45.083Z,94372.65
2019-05-20T19:03:13.646Z,94379.58
2019-05-20T19:05:42.330Z,94380.59
2019-05-20T19:08:10.903Z,94369.27
2019-05-20T19:10:39.552Z,94379.94
2019-05-20T19:13:08.211Z,94380.98
2019-05-20T19:15:36.848Z,94374.69
2019-05-20T19:18:05.572Z,94375.95
2019-05-20T19:20:34.254Z,94386.61
2019-05-20T19:23:02.820Z,94376.80
2019-05-20T19:25:37.881Z,94383.95
2019-05-20T19:28:01.772Z,94380.93
2019-05-20T19:30:30.515Z,94391.46
2019-05-20T19:32:59.147Z,94390.22
2019-05-20T19:35:27.814Z,94377.17
2019-05-20T19:37:56.448Z,94394.47
2019-05-20T19:40:25.012Z,94391.09
2019-05-20T19:42:53.551Z,94381.05
2019-05-20T19:45:22.144Z,94384.77
2019-05-20T19:47:50.772Z,94384.00
2019-05-20T19:50:19.446Z,94392.68
2019-05-20T19:52:47.972Z,94386.03
2019-05-20T19:55:18.826Z,94386.27
2019-05-20T19:57:46.978Z,94374.70
2019-05-20T20:00:16.273Z,94380.22
2019-05-20T20:02:44.965Z,94384.48
2019-05-20T20:05:13.650Z,94386.59
2019-05-20T20:07:42.136Z,94388.19
2019-05-20T20:10:10.775Z,94391.45
2019-05-20T20:12:39.521Z,94391.28
2019-05-20T20:15:08.557Z,94398.16
2019-05-20T20:17:37.117Z,94400.98
2019-05-20T20:20:06.901Z,94398.98
2019-05-20T20:22:35.532Z,94399.61
2019-05-20T20:25:05.561Z,94397.03
2019-05-20T20:27:34.244Z,94410.50
2019-05-20T20:30:02.822Z,94410.94
2019-05-20T20:32:37.887Z,94417.55
2019-05-20T20:35:01.851Z,94428.09
2019-05-20T20:37:30.480Z,94422.06
2019-05-20T20:39:59.142Z,94422.88
2019-05-20T20:42:27.668Z,94434.88
2019-05-20T20:44:56.173Z,94429.14
2019-05-20T20:47:24.902Z,94438.55
2019-05-20T20:49:53.536Z,94441.64
2019-05-20T20:52:22.160Z,94447.80
2019-05-20T20:54:50.730Z,94446.21
2019-05-20T20:57:19.458Z,94436.98
2019-05-20T20:59:50.204Z,94445.92
2019-05-20T21:02:18.286Z,94448.90
2019-05-20T21:04:46.928Z,94446.77
2019-05-20T21:07:15.575Z,94439.19
2019-05-20T21:09:44.255Z,94443.94
2019-05-20T21:12:12.755Z,94445.17
2019-05-20T21:14:41.318Z,94446.61
2019-05-20T21:17:09.989Z,94456.56
2019-05-20T21:19:38.488Z,94454.63
2019-05-20T21:22:07.175Z,94449.59
2019-05-20T21:24:35.909Z,94462.30
2019-05-20T21:27:05.209Z,94447.83
2019-05-20T21:29:33.653Z,94447.86
2019-05-20T21:32:02.343Z,94442.72
2019-05-20T21:34:31.244Z,94434.15
2019-05-20T21:36:59.971Z,94435.66
2019-05-20T21:39:28.530Z,94440.19
2019-05-20T21:41:57.173Z,94444.91
2019-05-20T21:44:25.821Z,94453.84
2019-05-20T21:46:54.407Z,94466.91
2019-05-20T21:49:22.900Z,94448.48
2019-05-20T21:51:51.489Z,94440.46
2019-05-20T21:54:20.090Z,94449.89
2019-05-20T21:56:50.109Z,94446.24
2019-05-20T21:59:18.846Z,94455.33
2019-05-20T22:01:47.526Z,94457.25
2019-05-20T22:04:16.105Z,94463.94
2019-05-20T22:06:44.757Z,94451.23
2019-05-20T22:09:13.415Z,94455.51
2019-05-20T22:11:41.907Z,94462.39
2019-05-20T22:14:10.524Z,94472.38
2019-05-20T22:16:39.159Z,94467.31
2019-05-20T22:19:07.829Z,94460.77
2019-05-20T22:21:40.748Z,94467.09
2019-05-20T22:24:09.256Z,94473.19
2019-05-20T22:26:38.031Z,94476.16
2019-05-20T22:29:06.725Z,94476.89
2019-05-20T22:31:35.248Z,94474.06
2019-05-20T22:34:03.826Z,94474.90
2019-05-20T22:36:32.474Z,94461.95
2019-05-20T22:39:01.145Z,94469.11
2019-05-20T22:41:29.647Z,94474.75
2019-05-20T22:43:58.149Z,94466.51
2019-05-20T22:46:26.823Z,94469.52
2019-05-20T22:48:55.507Z,94478.41
2019-05-20T22:51:24.010Z,94475.11
2019-05-20T22:53:52.554Z,94487.27
2019-05-20T22:56:21.190Z,94483.53
2019-05-20T22:58:49.704Z,94487.27
2019-05-20T23:01:18.251Z,94487.88
2019-05-20T23:03:55.959Z,94483.68
2019-05-20T23:06:17.091Z,94477.84
2019-05-20T23:08:45.699Z,94485.69
2019-05-20T23:11:14.221Z,94493.98
2019-05-20T23:13:42.907Z,94488.98
2019-05-20T23:16:11.549Z,94500.80
2019-05-20T23:18:40.111Z,94501.38
2019-05-20T23:21:08.876Z,94506.52
2019-05-20T23:23:37.754Z,94502.11
2019-05-20T23:26:06.269Z,94489.33
2019-05-20T23:28:34.880Z,94499.84
2019-05-20T23:31:03.533Z,94497.80
2019-05-20T23:33:32.162Z,94491.88
2019-05-20T23:36:00.706Z,94485.47
2019-05-20T23:38:29.214Z,94485.21
2019-05-20T23:40:57.856Z,94482.16
2019-05-20T23:43:26.533Z,94479.36
2019-05-20T23:45:55.039Z,94473.30
2019-05-20T23:48:23.624Z,94477.16
2019-05-20T23:50:52.306Z,94477.86
2019-05-20T23:53:20.943Z,94469.67
2019-05-20T23:55:49.584Z,94469.39
2019-05-20T23:58:18.275Z,94468.08
